createdAt,value
2018-12-12T00:01:58.760Z,7.87
2018-12-12T00:04:28.986Z,7.90
2018-12-12T00:06:59.555Z,8.00
2018-12-12T00:09:29.472Z,8.10
2018-12-12T00:11:59.561Z,7.92
2018-12-12T00:14:29.448Z,7.50
2018-12-12T00:16:59.472Z,7.97
2018-12-12T00:19:29.479Z,7.87
2018-12-12T00:21:59.475Z,7.43
2018-12-12T00:24:29.648Z,7.37
2018-12-12T00:26:59.799Z,7.53
2018-12-12T00:29:30.069Z,7.27
2018-12-12T00:32:00.264Z,6.87
2018-12-12T00:34:30.363Z,7.97
2018-12-12T00:37:00.491Z,8.33
2018-12-12T00:39:30.659Z,7.92
2018-12-12T00:42:00.719Z,8.00
2018-12-12T00:44:30.502Z,7.63
2018-12-12T00:47:00.606Z,7.33
2018-12-12T00:49:30.382Z,8.10
2018-12-12T00:52:00.852Z,6.90
2018-12-12T00:54:31.192Z,8.50
2018-12-12T00:57:01.111Z,7.47
2018-12-12T00:59:31.431Z,7.87
2018-12-12T01:02:01.416Z,7.80
2018-12-12T01:04:31.179Z,7.60
2018-12-12T01:07:01.243Z,8.50
2018-12-12T01:09:31.296Z,8.47
2018-12-12T01:12:04.425Z,8.05
2018-12-12T01:14:34.785Z,7.80
2018-12-12T01:17:04.963Z,8.60
2018-12-12T01:19:35.089Z,8.70
2018-12-12T01:22:05.178Z,8.80
2018-12-12T01:24:35.336Z,8.00
2018-12-12T01:27:05.343Z,7.92
2018-12-12T01:29:35.450Z,9.38
2018-12-12T01:32:07.948Z,8.75
2018-12-12T01:34:38.338Z,8.33
2018-12-12T01:37:08.682Z,7.73
2018-12-12T01:39:38.450Z,8.40
2018-12-12T01:42:08.313Z,8.70
2018-12-12T01:44:38.569Z,8.47
2018-12-12T01:47:08.534Z,8.55
2018-12-12T01:49:38.734Z,8.75
2018-12-12T01:52:09.010Z,9.23
2018-12-12T01:54:39.909Z,9.40
2018-12-12T01:57:10.059Z,8.78
2018-12-12T01:59:40.239Z,8.87
2018-12-12T02:02:10.263Z,8.70
2018-12-12T02:04:40.340Z,8.95
2018-12-12T02:07:10.447Z,8.83
2018-12-12T02:09:40.602Z,9.10
2018-12-12T02:12:11.655Z,9.43
2018-12-12T02:14:41.996Z,8.73
2018-12-12T02:17:12.026Z,9.27
2018-12-12T02:19:42.705Z,9.75
2018-12-12T02:22:12.768Z,9.93
2018-12-12T02:24:42.547Z,9.60
2018-12-12T02:27:12.506Z,9.63
2018-12-12T02:29:42.334Z,9.77
2018-12-12T02:32:12.376Z,8.90
2018-12-12T02:34:46.940Z,9.23
2018-12-12T02:37:16.992Z,9.53
2018-12-12T02:39:47.194Z,8.78
2018-12-12T02:42:17.635Z,11.45
2018-12-12T02:44:47.366Z,9.97
2018-12-12T02:47:18.577Z,9.10
2018-12-12T02:49:48.313Z,8.87
2018-12-12T02:52:18.463Z,9.37
2018-12-12T02:54:48.691Z,10.63
2018-12-12T02:57:18.455Z,9.77
2018-12-12T02:59:48.635Z,9.93
2018-12-12T03:02:18.547Z,9.63
2018-12-12T03:04:48.551Z,10.80
2018-12-12T03:07:18.495Z,12.20
2018-12-12T03:09:48.556Z,10.27
2018-12-12T03:12:18.288Z,10.47
2018-12-12T03:14:48.052Z,10.07
2018-12-12T03:17:18.222Z,10.53
2018-12-12T03:19:48.562Z,11.57
2018-12-12T03:22:18.540Z,10.83
2018-12-12T03:24:48.545Z,11.90
2018-12-12T03:27:18.545Z,10.27
2018-12-12T03:29:48.365Z,9.80
2018-12-12T03:32:18.537Z,9.25
2018-12-12T03:34:48.565Z,9.93
2018-12-12T03:37:21.877Z,9.20
2018-12-12T03:39:52.115Z,9.55
2018-12-12T03:42:22.395Z,9.65
2018-12-12T03:47:41.259Z,10.13
2018-12-12T03:50:11.265Z,10.87
2018-12-12T03:52:41.479Z,11.28
2018-12-12T03:55:11.540Z,11.40
2018-12-12T03:57:41.264Z,11.17
2018-12-12T04:00:11.451Z,10.20
2018-12-12T04:02:41.635Z,10.90
2018-12-12T04:05:14.222Z,10.28
2018-12-12T04:07:44.283Z,11.43
2018-12-12T04:10:24.812Z,11.10
2018-12-12T04:12:54.955Z,10.87
2018-12-12T04:15:25.036Z,10.68
2018-12-12T04:17:55.099Z,10.72
2018-12-12T04:20:25.443Z,10.65
2018-12-12T04:22:59.037Z,10.93
2018-12-12T04:25:29.188Z,17.15
2018-12-12T04:27:59.226Z,17.00
2018-12-12T04:30:29.056Z,18.30
2018-12-12T04:32:59.182Z,18.03
2018-12-12T04:35:28.954Z,17.07
2018-12-12T04:37:59.072Z,17.02
2018-12-12T04:40:29.314Z,13.75
2018-12-12T04:42:59.411Z,14.30
2018-12-12T04:45:29.582Z,13.63
2018-12-12T04:47:59.528Z,12.90
2018-12-12T04:50:29.295Z,13.43
2018-12-12T04:52:59.432Z,13.97
2018-12-12T04:55:29.534Z,14.97
2018-12-12T04:57:59.417Z,16.85
2018-12-12T05:00:29.567Z,20.33
2018-12-12T05:03:00.174Z,14.33
2018-12-12T05:05:29.944Z,12.37
2018-12-12T05:07:59.661Z,12.23
2018-12-12T05:10:29.642Z,15.77
2018-12-12T05:13:03.863Z,16.60
2018-12-12T05:15:33.877Z,18.53
2018-12-12T05:18:03.949Z,21.57
2018-12-12T05:20:34.809Z,20.82
2018-12-12T05:23:04.755Z,19.70
2018-12-12T05:25:34.762Z,20.73
2018-12-12T05:28:04.714Z,20.40
2018-12-12T05:30:34.482Z,21.10
2018-12-12T05:33:04.581Z,22.82
2018-12-12T05:35:34.839Z,26.83
2018-12-12T05:38:04.647Z,30.23
2018-12-12T05:40:35.211Z,28.03
2018-12-12T05:43:05.423Z,26.20
2018-12-12T05:45:35.759Z,25.77
2018-12-12T05:48:05.920Z,23.90
2018-12-12T05:50:36.087Z,22.53
2018-12-12T05:53:07.457Z,22.82
2018-12-12T05:55:37.444Z,24.53
2018-12-12T05:58:07.232Z,21.73
2018-12-12T06:00:37.753Z,22.87
2018-12-12T06:03:07.696Z,25.02
2018-12-12T06:05:37.484Z,27.17
2018-12-12T06:08:07.624Z,27.27
2018-12-12T06:10:38.937Z,28.83
2018-12-12T06:13:08.713Z,29.03
2018-12-12T06:15:38.585Z,31.97
2018-12-12T06:18:08.566Z,32.57
2018-12-12T06:20:38.704Z,31.17
2018-12-12T06:23:08.501Z,27.07
2018-12-12T06:25:38.725Z,26.83
2018-12-12T06:28:08.477Z,24.90
2018-12-12T06:30:38.408Z,25.77
2018-12-12T06:33:08.423Z,25.40
2018-12-12T06:35:38.200Z,26.35
2018-12-12T06:38:08.077Z,26.97
2018-12-12T06:40:38.214Z,26.40
2018-12-12T06:43:09.153Z,27.40
2018-12-12T06:45:39.403Z,26.63
2018-12-12T06:48:09.195Z,28.57
2018-12-12T06:50:39.319Z,28.12
2018-12-12T06:53:09.517Z,28.23
2018-12-12T06:55:39.927Z,27.73
2018-12-12T06:58:10.634Z,26.63
2018-12-12T07:00:40.524Z,27.20
2018-12-12T07:03:10.366Z,28.40
2018-12-12T07:05:40.479Z,29.53
2018-12-12T07:08:10.280Z,28.57
2018-12-12T07:10:40.082Z,30.95
2018-12-12T07:13:10.347Z,31.00
2018-12-12T07:15:41.757Z,29.95
2018-12-12T07:18:11.640Z,31.33
2018-12-12T07:20:41.514Z,34.40
2018-12-12T07:23:14.882Z,33.65
2018-12-12T07:25:45.371Z,33.28
2018-12-12T07:28:15.419Z,32.50
2018-12-12T07:30:45.513Z,31.15
2018-12-12T07:33:15.837Z,30.17
2018-12-12T07:35:45.819Z,31.23
2018-12-12T07:38:15.782Z,31.47
2018-12-12T07:40:45.535Z,30.70
2018-12-12T07:43:15.420Z,31.40
2018-12-12T07:45:45.347Z,29.73
2018-12-12T07:48:15.440Z,30.27
2018-12-12T07:50:46.521Z,31.30
2018-12-12T07:53:16.312Z,31.07
2018-12-12T07:55:47.178Z,31.93
2018-12-12T07:58:17.334Z,31.87
2018-12-12T08:00:47.430Z,32.20
2018-12-12T08:03:17.252Z,36.23
2018-12-12T08:05:47.414Z,34.73
2018-12-12T08:08:17.927Z,34.57
2018-12-12T08:10:48.114Z,33.50
2018-12-12T08:13:18.296Z,32.27
2018-12-12T08:15:48.053Z,30.77
2018-12-12T08:18:18.086Z,32.27
2018-12-12T08:20:48.249Z,32.25
2018-12-12T08:23:18.983Z,33.30
2018-12-12T08:25:49.099Z,36.00
2018-12-12T08:28:19.469Z,35.03
2018-12-12T08:30:49.191Z,34.07
2018-12-12T08:33:19.365Z,33.73
2018-12-12T08:35:49.449Z,33.27
2018-12-12T08:38:19.442Z,31.77
2018-12-12T08:40:49.449Z,36.17
2018-12-12T08:43:20.674Z,34.75
2018-12-12T08:45:50.483Z,33.73
2018-12-12T08:48:20.302Z,32.97
2018-12-12T08:51:01.734Z,33.17
2018-12-12T08:53:31.490Z,32.83
2018-12-12T08:56:01.539Z,31.27
2018-12-12T08:58:31.314Z,30.90
2018-12-12T09:01:01.720Z,32.53
2018-12-12T09:03:31.895Z,32.48
2018-12-12T09:06:02.627Z,34.10
2018-12-12T09:08:32.644Z,34.70
2018-12-12T09:11:02.393Z,35.73
2018-12-12T09:13:32.416Z,34.83
2018-12-12T09:16:02.242Z,37.13
2018-12-12T09:18:32.312Z,37.85
2018-12-12T09:21:02.457Z,38.33
2018-12-12T09:23:32.297Z,35.97
2018-12-12T09:26:02.178Z,38.30
2018-12-12T09:28:32.271Z,37.88
2018-12-12T09:31:02.409Z,36.60
2018-12-12T09:33:32.406Z,36.60
2018-12-12T09:36:02.452Z,39.57
2018-12-12T09:38:33.511Z,38.30
2018-12-12T09:41:03.235Z,37.10
2018-12-12T09:43:33.230Z,38.77
2018-12-12T09:46:03.224Z,38.73
2018-12-12T09:48:33.447Z,40.20
2018-12-12T09:51:07.352Z,38.70
2018-12-12T09:53:35.509Z,35.90
2018-12-12T09:56:05.288Z,38.67
2018-12-12T09:58:35.102Z,38.43
2018-12-12T10:01:06.366Z,36.60
2018-12-12T10:03:36.501Z,36.53
2018-12-12T10:06:06.592Z,35.50
2018-12-12T10:08:36.409Z,36.03
2018-12-12T10:11:07.385Z,35.20
2018-12-12T10:13:37.352Z,35.40
2018-12-12T10:16:07.364Z,36.47
2018-12-12T10:18:37.437Z,35.40
2018-12-12T10:21:07.196Z,36.97
2018-12-12T10:23:37.309Z,35.58
2018-12-12T10:26:07.443Z,35.07
2018-12-12T10:28:37.375Z,34.33
2018-12-12T10:31:07.515Z,35.10
2018-12-12T10:33:37.887Z,33.47
2018-12-12T10:36:08.260Z,35.53
2018-12-12T10:38:38.172Z,37.97
2018-12-12T10:41:08.333Z,34.35
2018-12-12T10:43:38.319Z,31.97
2018-12-12T10:46:08.748Z,32.50
2018-12-12T10:48:38.634Z,34.13
2018-12-12T10:51:08.385Z,36.40
2018-12-12T10:53:38.137Z,33.87
2018-12-12T10:56:08.318Z,34.50
2018-12-12T10:58:38.368Z,33.17
2018-12-12T11:01:13.564Z,32.80
2018-12-12T11:03:44.459Z,23.55
2018-12-12T11:06:15.047Z,9.78
2018-12-12T11:08:45.153Z,8.58
2018-12-12T11:11:15.585Z,5.73
2018-12-12T11:13:45.333Z,5.67
2018-12-12T11:16:15.065Z,5.40
2018-12-12T11:18:45.222Z,7.15
2018-12-12T11:21:15.296Z,13.10
2018-12-12T11:23:46.733Z,9.98
2018-12-12T11:26:16.559Z,10.43
2018-12-12T11:28:46.392Z,9.90
2018-12-12T11:31:16.544Z,34.57
2018-12-12T11:33:50.475Z,32.38
2018-12-12T11:36:18.667Z,21.63
2018-12-12T11:38:48.689Z,14.70
2018-12-12T11:41:19.569Z,15.80
2018-12-12T11:43:49.313Z,16.70
2018-12-12T11:46:19.285Z,20.97
2018-12-12T11:48:49.529Z,20.52
2018-12-12T11:51:19.380Z,21.73
2018-12-12T11:53:49.484Z,26.47
2018-12-12T11:56:19.486Z,30.37
2018-12-12T11:58:49.553Z,31.00
2018-12-12T12:01:19.521Z,31.47
2018-12-12T12:06:32.837Z,32.27
2018-12-12T12:09:02.779Z,33.07
2018-12-12T12:11:32.568Z,32.47
2018-12-12T12:14:02.487Z,33.30
2018-12-12T12:16:32.554Z,35.23
2018-12-12T12:19:10.275Z,36.67
2018-12-12T12:21:40.594Z,32.90
2018-12-12T12:24:11.733Z,37.30
2018-12-12T12:26:41.658Z,37.57
2018-12-12T12:29:15.693Z,35.90
2018-12-12T12:31:45.553Z,34.13
2018-12-12T12:34:15.249Z,31.53
2018-12-12T12:36:46.307Z,30.40
2018-12-12T12:39:16.573Z,28.57
2018-12-12T12:41:46.502Z,30.03
2018-12-12T12:44:16.560Z,29.37
2018-12-12T12:46:46.349Z,31.40
2018-12-12T12:49:16.584Z,31.03
2018-12-12T12:51:46.653Z,33.77
2018-12-12T12:54:16.395Z,36.60
2018-12-12T12:56:46.517Z,41.53
2018-12-12T12:59:16.450Z,42.57
2018-12-12T13:04:32.942Z,81.47
2018-12-12T13:07:03.481Z,77.58
2018-12-12T13:09:34.293Z,89.77
2018-12-12T13:12:04.867Z,107.47
2018-12-12T13:14:36.004Z,87.65
2018-12-12T13:17:06.068Z,55.57
2018-12-12T13:19:36.163Z,40.20
2018-12-12T13:22:06.574Z,33.48
2018-12-12T13:24:36.760Z,32.60
2018-12-12T13:27:06.596Z,32.47
2018-12-12T13:29:36.612Z,34.40
2018-12-12T13:32:06.337Z,35.93
2018-12-12T13:34:36.090Z,35.33
2018-12-12T13:37:06.263Z,37.53
2018-12-12T13:39:36.051Z,36.50
2018-12-12T13:42:06.100Z,32.37
2018-12-12T13:44:36.366Z,31.47
2018-12-12T13:47:06.377Z,34.60
2018-12-12T13:49:36.420Z,34.47
2018-12-12T13:52:06.368Z,34.27
2018-12-12T13:54:36.375Z,36.67
2018-12-12T13:57:07.564Z,48.90
2018-12-12T13:59:37.656Z,49.57
2018-12-12T14:02:07.562Z,40.10
2018-12-12T14:07:22.717Z,33.55
2018-12-12T14:09:52.468Z,32.77
2018-12-12T14:12:22.628Z,29.10
2018-12-12T14:14:52.789Z,29.75
2018-12-12T14:17:22.523Z,27.02
2018-12-12T14:19:52.495Z,26.03
2018-12-12T14:22:23.605Z,27.25
2018-12-12T14:25:11.132Z,28.00
2018-12-12T14:27:46.982Z,41.80
2018-12-12T14:30:17.464Z,37.50
2018-12-12T14:32:47.740Z,44.33
2018-12-12T14:35:17.437Z,35.80
2018-12-12T14:37:47.877Z,30.10
2018-12-12T14:40:18.093Z,35.93
2018-12-12T14:42:48.157Z,41.40
2018-12-12T14:45:17.941Z,42.13
2018-12-12T14:47:52.092Z,38.00
2018-12-12T14:50:22.307Z,33.63
2018-12-12T14:52:52.676Z,34.73
2018-12-12T14:55:22.386Z,45.20
2018-12-12T14:57:52.505Z,39.70
2018-12-12T15:00:22.648Z,47.07
2018-12-12T15:02:52.603Z,37.53
2018-12-12T15:05:22.737Z,48.07
2018-12-12T15:07:52.587Z,44.17
2018-12-12T15:10:23.664Z,40.95
2018-12-12T15:12:53.550Z,70.57
2018-12-12T15:15:23.679Z,76.10
2018-12-12T15:17:53.671Z,90.67
2018-12-12T15:20:23.548Z,51.43
2018-12-12T15:22:53.523Z,40.40
2018-12-12T15:25:23.507Z,37.57
2018-12-12T15:27:53.709Z,42.70
2018-12-12T15:30:23.507Z,44.60
2018-12-12T15:32:53.501Z,43.33
2018-12-12T15:35:23.503Z,41.97
2018-12-12T15:37:53.419Z,43.67
2018-12-12T15:40:23.655Z,47.33
2018-12-12T15:42:53.493Z,54.20
2018-12-12T15:45:23.686Z,57.60
2018-12-12T15:47:53.624Z,61.83
2018-12-12T15:50:23.727Z,73.27
2018-12-12T15:52:55.490Z,71.37
2018-12-12T15:55:25.670Z,64.45
2018-12-12T15:57:55.768Z,79.60
2018-12-12T16:00:27.691Z,81.60
2018-12-12T16:02:58.247Z,79.47
2018-12-12T16:05:28.741Z,76.73
2018-12-12T16:07:59.474Z,69.17
2018-12-12T16:10:29.596Z,54.53
2018-12-12T16:12:59.930Z,46.63
2018-12-12T16:15:30.455Z,53.70
2018-12-12T16:18:01.022Z,48.40
2018-12-12T16:20:31.108Z,44.15
2018-12-12T16:23:01.292Z,44.10
2018-12-12T16:25:31.394Z,43.80
2018-12-12T16:28:01.287Z,48.65
2018-12-12T16:30:31.309Z,55.50
2018-12-12T16:33:01.453Z,53.87
2018-12-12T16:35:31.834Z,48.07
2018-12-12T16:38:01.693Z,48.87
2018-12-12T16:40:32.029Z,53.73
2018-12-12T16:43:02.408Z,50.60
2018-12-12T16:45:32.219Z,55.67
2018-12-12T16:48:02.111Z,48.60
2018-12-12T16:50:32.229Z,48.45
2018-12-12T16:53:02.491Z,46.87
2018-12-12T16:55:32.344Z,50.80
2018-12-12T16:58:02.251Z,49.50
2018-12-12T17:00:32.368Z,52.05
2018-12-12T17:03:02.299Z,50.63
2018-12-12T17:05:32.544Z,49.03
2018-12-12T17:08:02.739Z,46.17
2018-12-12T17:10:32.580Z,43.77
2018-12-12T17:13:03.133Z,43.67
2018-12-12T17:15:33.121Z,41.57
2018-12-12T17:18:03.469Z,41.00
2018-12-12T17:20:33.315Z,41.37
2018-12-12T17:23:03.275Z,41.77
2018-12-12T17:25:33.430Z,41.77
2018-12-12T17:28:03.374Z,44.30
2018-12-12T17:30:33.256Z,44.70
2018-12-12T17:33:03.363Z,42.60
2018-12-12T17:35:33.413Z,41.63
2018-12-12T17:38:03.489Z,49.55
2018-12-12T17:40:35.911Z,53.87
2018-12-12T17:43:06.058Z,57.95
2018-12-12T17:48:20.221Z,68.15
2018-12-12T17:50:50.364Z,70.47
2018-12-12T17:53:20.100Z,81.37
2018-12-12T17:55:50.221Z,64.63
2018-12-12T17:58:20.577Z,58.77
2018-12-12T18:00:50.405Z,51.60
2018-12-12T18:03:20.576Z,46.37
2018-12-12T18:05:50.774Z,47.05
2018-12-12T18:08:20.723Z,47.00
2018-12-12T18:10:50.841Z,46.63
2018-12-12T18:13:21.379Z,50.33
2018-12-12T18:15:51.163Z,49.13
2018-12-12T18:18:21.529Z,49.57
2018-12-12T18:20:51.680Z,47.07
2018-12-12T18:23:21.827Z,47.40
2018-12-12T18:25:51.981Z,45.33
2018-12-12T18:28:22.196Z,57.13
2018-12-12T18:30:52.479Z,65.08
2018-12-12T18:33:22.498Z,94.43
2018-12-12T18:35:53.074Z,100.60
2018-12-12T18:38:23.290Z,110.48
2018-12-12T18:40:53.414Z,151.53
2018-12-12T18:43:27.189Z,157.53
2018-12-12T18:45:58.632Z,122.07
2018-12-12T18:48:28.584Z,102.70
2018-12-12T18:50:59.884Z,83.67
2018-12-12T18:53:30.195Z,75.40
2018-12-12T18:56:00.315Z,67.72
2018-12-12T18:58:30.341Z,51.47
2018-12-12T19:01:01.013Z,47.30
2018-12-12T19:03:35.643Z,45.17
2018-12-12T19:06:05.774Z,44.17
2018-12-12T19:08:36.020Z,43.37
2018-12-12T19:11:06.532Z,44.27
2018-12-12T19:13:37.157Z,45.13
2018-12-12T19:16:07.014Z,45.87
2018-12-12T19:18:38.279Z,45.33
2018-12-12T19:21:08.493Z,50.07
2018-12-12T19:23:39.322Z,57.67
2018-12-12T19:26:09.539Z,71.83
2018-12-12T19:28:39.391Z,60.37
2018-12-12T19:31:09.844Z,56.90
2018-12-12T19:33:41.734Z,64.50
2018-12-12T19:36:11.766Z,70.17
2018-12-12T19:38:45.617Z,79.03
2018-12-12T19:41:16.501Z,80.17
2018-12-12T19:43:49.953Z,67.47
2018-12-12T19:46:31.282Z,61.40
2018-12-12T19:49:02.195Z,59.53
2018-12-12T19:51:32.950Z,64.57
2018-12-12T19:54:04.215Z,101.90
2018-12-12T19:56:34.409Z,116.07
2018-12-12T19:59:04.542Z,132.87
2018-12-12T20:01:34.493Z,87.77
2018-12-12T20:04:04.614Z,69.73
2018-12-12T20:06:34.542Z,60.37
2018-12-12T20:09:06.622Z,80.30
2018-12-12T20:11:36.799Z,113.10
2018-12-12T20:14:06.703Z,112.97
2018-12-12T20:16:37.016Z,100.17
2018-12-12T20:19:07.557Z,80.20
2018-12-12T20:21:37.547Z,78.13
2018-12-12T20:24:07.578Z,70.00
2018-12-12T20:26:37.820Z,52.80
2018-12-12T20:29:08.121Z,47.27
2018-12-12T20:31:38.127Z,48.30
2018-12-12T20:34:08.300Z,53.80
2018-12-12T20:36:38.563Z,61.33
2018-12-12T20:39:13.712Z,59.87
2018-12-12T20:41:43.779Z,57.67
2018-12-12T20:44:23.341Z,59.23
2018-12-12T20:46:53.337Z,61.70
2018-12-12T20:49:23.677Z,60.83
2018-12-12T20:54:55.524Z,49.42
2018-12-12T20:57:25.504Z,48.20
2018-12-12T20:59:55.381Z,43.50
2018-12-12T21:02:25.594Z,46.00
2018-12-12T21:04:55.823Z,50.57
2018-12-12T21:07:25.835Z,51.67
2018-12-12T21:09:55.853Z,49.67
2018-12-12T21:12:26.148Z,44.80
2018-12-12T21:14:56.224Z,43.73
2018-12-12T21:17:26.485Z,41.30
2018-12-12T21:19:56.913Z,41.40
2018-12-12T21:22:27.466Z,43.85
2018-12-12T21:24:57.215Z,44.37
2018-12-12T21:27:27.099Z,44.20
2018-12-12T21:29:57.427Z,44.07
2018-12-12T21:32:27.464Z,43.03
2018-12-12T21:34:57.563Z,42.93
2018-12-12T21:37:27.569Z,44.07
2018-12-12T21:39:57.317Z,42.93
2018-12-12T21:42:27.176Z,45.17
2018-12-12T21:44:57.652Z,49.40
2018-12-12T21:47:27.469Z,44.57
2018-12-12T21:49:57.604Z,42.50
2018-12-12T21:52:27.515Z,45.33
2018-12-12T21:54:57.793Z,46.10
2018-12-12T21:57:27.749Z,54.03
2018-12-12T21:59:57.832Z,51.17
2018-12-12T22:02:27.623Z,46.80
2018-12-12T22:04:57.578Z,45.07
2018-12-12T22:07:27.428Z,40.63
2018-12-12T22:09:57.141Z,39.63
2018-12-12T22:12:27.217Z,40.67
2018-12-12T22:14:57.439Z,42.57
2018-12-12T22:17:27.241Z,42.87
2018-12-12T22:19:58.683Z,40.92
2018-12-12T22:22:29.571Z,38.30
2018-12-12T22:24:59.804Z,38.92
2018-12-12T22:27:29.573Z,36.73
2018-12-12T22:29:59.425Z,38.40
2018-12-12T22:32:29.349Z,38.03
2018-12-12T22:34:59.112Z,37.50
2018-12-12T22:37:29.271Z,40.12
2018-12-12T22:39:59.239Z,40.80
2018-12-12T22:42:29.348Z,41.60
2018-12-12T22:44:59.575Z,40.87
2018-12-12T22:47:29.474Z,39.10
2018-12-12T22:49:59.205Z,38.10
2018-12-12T22:52:29.260Z,39.43
2018-12-12T22:54:59.472Z,38.00
2018-12-12T22:57:29.519Z,39.57
2018-12-12T22:59:59.922Z,37.93
2018-12-12T23:02:30.987Z,39.38
2018-12-12T23:05:01.268Z,36.25
2018-12-12T23:07:31.585Z,37.17
2018-12-12T23:10:01.339Z,38.73
2018-12-12T23:12:31.451Z,37.93
2018-12-12T23:15:01.448Z,36.83
2018-12-12T23:17:31.523Z,36.83
2018-12-12T23:20:01.542Z,39.20
2018-12-12T23:22:31.435Z,39.73
2018-12-12T23:25:01.436Z,41.13
2018-12-12T23:27:31.432Z,41.90
2018-12-12T23:30:01.350Z,45.40
2018-12-12T23:32:31.413Z,45.73
2018-12-12T23:35:01.245Z,47.20
2018-12-12T23:37:31.336Z,48.73
2018-12-12T23:40:01.182Z,50.53
2018-12-12T23:42:31.352Z,52.20
2018-12-12T23:45:01.249Z,53.07
2018-12-12T23:47:31.378Z,53.17
2018-12-12T23:50:01.741Z,55.27
2018-12-12T23:52:31.665Z,55.07
2018-12-12T23:55:01.957Z,54.03
2018-12-12T23:57:31.792Z,51.73
